sensor_id;sensor_type;location;lat;lon;timestamp;temperature;humidity
20204;DHT22;10261;49.010;12.034;2022-12-05T00:00:22;7.80;99.90
20204;DHT22;10261;49.010;12.034;2022-12-05T00:01:27;7.80;99.90
20204;DHT22;10261;49.010;12.034;2022-12-05T00:02:31;7.80;99.90
20204;DHT22;10261;49.010;12.034;2022-12-05T00:03:33;7.80;99.90
20204;DHT22;10261;49.010;12.034;2022-12-05T00:04:36;7.70;99.90
20204;DHT22;10261;49.010;12.034;2022-12-05T00:05:40;7.70;99.90
20204;DHT22;10261;49.010;12.034;2022-12-05T00:06:43;7.70;99.90
20204;DHT22;10261;49.010;12.034;2022-12-05T00:07:45;7.70;99.90
20204;DHT22;10261;49.010;12.034;2022-12-05T00:08:49;7.60;99.90
20204;DHT22;10261;49.010;12.034;2022-12-05T00:09:51;7.70;99.90
20204;DHT22;10261;49.010;12.034;2022-12-05T00:10:54;7.70;99.90
20204;DHT22;10261;49.010;12.034;2022-12-05T00:11:56;7.70;99.90
20204;DHT22;10261;49.010;12.034;2022-12-05T00:12:59;7.60;99.90
20204;DHT22;10261;49.010;12.034;2022-12-05T00:14:03;7.70;99.90
20204;DHT22;10261;49.010;12.034;2022-12-05T00:15:07;7.60;99.90
20204;DHT22;10261;49.010;12.034;2022-12-05T00:16:14;7.70;99.90
20204;DHT22;10261;49.010;12.034;2022-12-05T00:17:17;7.70;99.90
20204;DHT22;10261;49.010;12.034;2022-12-05T00:18:20;7.70;99.90
20204;DHT22;10261;49.010;12.034;2022-12-05T00:19:22;7.70;99.90
20204;DHT22;10261;49.010;12.034;2022-12-05T00:20:25;7.70;99.90
20204;DHT22;10261;49.010;12.034;2022-12-05T00:21:30;7.70;99.90
20204;DHT22;10261;49.010;12.034;2022-12-05T00:22:34;7.70;99.90
20204;DHT22;10261;49.010;12.034;2022-12-05T00:23:36;7.70;99.90
20204;DHT22;10261;49.010;12.034;2022-12-05T00:24:39;7.70;99.90
20204;DHT22;10261;49.010;12.034;2022-12-05T00:25:41;7.70;99.90
20204;DHT22;10261;49.010;12.034;2022-12-05T00:26:44;7.60;99.90
20204;DHT22;10261;49.010;12.034;2022-12-05T00:27:46;7.60;99.90
20204;DHT22;10261;49.010;12.034;2022-12-05T00:28:49;7.60;99.90
20204;DHT22;10261;49.010;12.034;2022-12-05T00:29:51;7.60;99.90
20204;DHT22;10261;49.010;12.034;2022-12-05T00:30:55;7.50;99.90
20204;DHT22;10261;49.010;12.034;2022-12-05T00:31:57;7.40;99.90
20204;DHT22;10261;49.010;12.034;2022-12-05T00:33:00;7.40;99.90
20204;DHT22;10261;49.010;12.034;2022-12-05T00:34:02;7.50;99.90
20204;DHT22;10261;49.010;12.034;2022-12-05T00:35:06;7.50;99.90
20204;DHT22;10261;49.010;12.034;2022-12-05T00:36:10;7.50;99.90
20204;DHT22;10261;49.010;12.034;2022-12-05T00:37:15;7.50;99.90
20204;DHT22;10261;49.010;12.034;2022-12-05T00:38:17;7.40;99.90
20204;DHT22;10261;49.010;12.034;2022-12-05T00:39:19;7.50;99.90
20204;DHT22;10261;49.010;12.034;2022-12-05T00:40:21;7.50;99.90
20204;DHT22;10261;49.010;12.034;2022-12-05T00:41:26;7.50;99.90
20204;DHT22;10261;49.010;12.034;2022-12-05T00:42:28;7.60;99.90
20204;DHT22;10261;49.010;12.034;2022-12-05T00:43:32;7.60;99.90
20204;DHT22;10261;49.010;12.034;2022-12-05T00:44:34;7.60;99.90
20204;DHT22;10261;49.010;12.034;2022-12-05T00:45:37;7.60;99.90
20204;DHT22;10261;49.010;12.034;2022-12-05T00:46:40;7.50;99.90
20204;DHT22;10261;49.010;12.034;2022-12-05T00:47:43;7.60;99.90
20204;DHT22;10261;49.010;12.034;2022-12-05T00:48:45;7.60;99.90
20204;DHT22;10261;49.010;12.034;2022-12-05T00:49:48;7.50;99.90
20204;DHT22;10261;49.010;12.034;2022-12-05T00:50:59;7.50;99.90
20204;DHT22;10261;49.010;12.034;2022-12-05T00:52:02;7.50;99.90
20204;DHT22;10261;49.010;12.034;2022-12-05T00:53:05;7.50;99.90
20204;DHT22;10261;49.010;12.034;2022-12-05T00:54:10;7.50;99.90
20204;DHT22;10261;49.010;12.034;2022-12-05T00:55:12;7.50;99.90
20204;DHT22;10261;49.010;12.034;2022-12-05T00:56:17;7.60;99.90
20204;DHT22;10261;49.010;12.034;2022-12-05T00:57:19;7.60;99.90
20204;DHT22;10261;49.010;12.034;2022-12-05T00:58:22;7.50;99.90
20204;DHT22;10261;49.010;12.034;2022-12-05T00:59:24;7.50;99.90
20204;DHT22;10261;49.010;12.034;2022-12-05T01:00:27;7.50;99.90
20204;DHT22;10261;49.010;12.034;2022-12-05T01:01:31;7.40;99.90
20204;DHT22;10261;49.010;12.034;2022-12-05T01:02:35;7.40;99.90
20204;DHT22;10261;49.010;12.034;2022-12-05T01:03:37;7.40;99.90
20204;DHT22;10261;49.010;12.034;2022-12-05T01:04:40;7.50;99.90
20204;DHT22;10261;49.010;12.034;2022-12-05T01:05:42;7.40;99.90
20204;DHT22;10261;49.010;12.034;2022-12-05T01:06:45;7.50;99.90
20204;DHT22;10261;49.010;12.034;2022-12-05T01:07:47;7.50;99.90
20204;DHT22;10261;49.010;12.034;2022-12-05T01:08:54;7.50;99.90
20204;DHT22;10261;49.010;12.034;2022-12-05T01:09:56;7.50;99.90
20204;DHT22;10261;49.010;12.034;2022-12-05T01:10:59;7.40;99.90
20204;DHT22;10261;49.010;12.034;2022-12-05T01:12:02;7.40;99.90
20204;DHT22;10261;49.010;12.034;2022-12-05T01:13:05;7.40;99.90
20204;DHT22;10261;49.010;12.034;2022-12-05T01:14:07;7.40;99.90
20204;DHT22;10261;49.010;12.034;2022-12-05T01:15:10;7.50;99.90
20204;DHT22;10261;49.010;12.034;2022-12-05T01:16:13;7.40;99.90
20204;DHT22;10261;49.010;12.034;2022-12-05T01:17:17;7.40;99.90
20204;DHT22;10261;49.010;12.034;2022-12-05T01:18:20;7.50;99.90
20204;DHT22;10261;49.010;12.034;2022-12-05T01:19:25;7.40;99.90
20204;DHT22;10261;49.010;12.034;2022-12-05T01:20:28;7.40;99.90
20204;DHT22;10261;49.010;12.034;2022-12-05T01:21:30;7.40;99.90
20204;DHT22;10261;49.010;12.034;2022-12-05T01:22:33;7.40;99.90
20204;DHT22;10261;49.010;12.034;2022-12-05T01:23:36;7.40;99.90
20204;DHT22;10261;49.010;12.034;2022-12-05T01:24:40;7.40;99.90
20204;DHT22;10261;49.010;12.034;2022-12-05T01:25:44;7.40;99.90
20204;DHT22;10261;49.010;12.034;2022-12-05T01:26:48;7.30;99.90
20204;DHT22;10261;49.010;12.034;2022-12-05T01:27:50;7.30;99.90
20204;DHT22;10261;49.010;12.034;2022-12-05T01:28:53;7.40;99.90
20204;DHT22;10261;49.010;12.034;2022-12-05T01:29:56;7.40;99.90
20204;DHT22;10261;49.010;12.034;2022-12-05T01:31:04;7.40;99.90
20204;DHT22;10261;49.010;12.034;2022-12-05T01:32:07;7.40;99.90
20204;DHT22;10261;49.010;12.034;2022-12-05T01:33:11;7.40;99.90
20204;DHT22;10261;49.010;12.034;2022-12-05T01:34:14;7.40;99.90
20204;DHT22;10261;49.010;12.034;2022-12-05T01:35:17;7.50;99.90
20204;DHT22;10261;49.010;12.034;2022-12-05T01:36:20;7.50;99.90
20204;DHT22;10261;49.010;12.034;2022-12-05T01:37:23;7.50;99.90
20204;DHT22;10261;49.010;12.034;2022-12-05T01:38:25;7.50;99.90
20204;DHT22;10261;49.010;12.034;2022-12-05T01:39:28;7.40;99.90
20204;DHT22;10261;49.010;12.034;2022-12-05T01:40:33;7.50;99.90
20204;DHT22;10261;49.010;12.034;2022-12-05T01:41:38;7.50;99.90
20204;DHT22;10261;49.010;12.034;2022-12-05T01:42:41;7.60;99.90
20204;DHT22;10261;49.010;12.034;2022-12-05T01:43:58;7.50;99.90
20204;DHT22;10261;49.010;12.034;2022-12-05T01:45:06;7.50;99.90
20204;DHT22;10261;49.010;12.034;2022-12-05T01:46:09;7.60;99.90
20204;DHT22;10261;49.010;12.034;2022-12-05T01:47:11;7.50;99.90
20204;DHT22;10261;49.010;12.034;2022-12-05T01:48:18;7.60;99.90
20204;DHT22;10261;49.010;12.034;2022-12-05T01:49:24;7.50;99.90
20204;DHT22;10261;49.010;12.034;2022-12-05T01:50:29;7.50;99.90
20204;DHT22;10261;49.010;12.034;2022-12-05T01:51:31;7.50;99.90
20204;DHT22;10261;49.010;12.034;2022-12-05T01:52:35;7.60;99.90
20204;DHT22;10261;49.010;12.034;2022-12-05T01:53:37;7.50;99.90
20204;DHT22;10261;49.010;12.034;2022-12-05T01:54:41;7.70;99.90
20204;DHT22;10261;49.010;12.034;2022-12-05T01:55:46;7.60;99.90
20204;DHT22;10261;49.010;12.034;2022-12-05T01:56:55;7.60;99.90
20204;DHT22;10261;49.010;12.034;2022-12-05T01:57:59;7.50;99.90
20204;DHT22;10261;49.010;12.034;2022-12-05T01:59:05;7.50;99.90
20204;DHT22;10261;49.010;12.034;2022-12-05T02:00:11;7.50;99.90
20204;DHT22;10261;49.010;12.034;2022-12-05T02:01:15;7.50;99.90
20204;DHT22;10261;49.010;12.034;2022-12-05T02:02:19;7.50;99.90
20204;DHT22;10261;49.010;12.034;2022-12-05T02:03:22;7.50;99.90
20204;DHT22;10261;49.010;12.034;2022-12-05T02:04:24;7.50;99.90
20204;DHT22;10261;49.010;12.034;2022-12-05T02:05:30;7.40;99.90
20204;DHT22;10261;49.010;12.034;2022-12-05T02:06:33;7.40;99.90
20204;DHT22;10261;49.010;12.034;2022-12-05T02:07:37;7.50;99.90
20204;DHT22;10261;49.010;12.034;2022-12-05T02:08:42;7.50;99.90
20204;DHT22;10261;49.010;12.034;2022-12-05T02:09:48;7.50;99.90
20204;DHT22;10261;49.010;12.034;2022-12-05T02:10:55;7.60;99.90
20204;DHT22;10261;49.010;12.034;2022-12-05T02:12:01;7.60;99.90
20204;DHT22;10261;49.010;12.034;2022-12-05T02:13:19;7.60;99.90
20204;DHT22;10261;49.010;12.034;2022-12-05T02:14:34;7.60;99.90
20204;DHT22;10261;49.010;12.034;2022-12-05T02:15:43;7.70;99.90
20204;DHT22;10261;49.010;12.034;2022-12-05T02:16:55;7.70;99.90
20204;DHT22;10261;49.010;12.034;2022-12-05T02:18:12;7.60;99.90
20204;DHT22;10261;49.010;12.034;2022-12-05T02:23:01;7.60;99.90
20204;DHT22;10261;49.010;12.034;2022-12-05T02:25:56;7.60;99.90
20204;DHT22;10261;49.010;12.034;2022-12-05T02:27:16;7.50;99.90
20204;DHT22;10261;49.010;12.034;2022-12-05T02:28:42;7.50;99.90
20204;DHT22;10261;49.010;12.034;2022-12-05T02:30:03;7.60;99.90
20204;DHT22;10261;49.010;12.034;2022-12-05T02:31:09;7.50;99.90
20204;DHT22;10261;49.010;12.034;2022-12-05T02:32:19;7.50;99.90
20204;DHT22;10261;49.010;12.034;2022-12-05T02:33:33;7.40;99.90
20204;DHT22;10261;49.010;12.034;2022-12-05T02:34:43;7.40;99.90
20204;DHT22;10261;49.010;12.034;2022-12-05T02:35:53;7.40;99.90
20204;DHT22;10261;49.010;12.034;2022-12-05T02:36:59;7.40;99.90
20204;DHT22;10261;49.010;12.034;2022-12-05T02:38:14;7.40;99.90
20204;DHT22;10261;49.010;12.034;2022-12-05T02:39:23;7.50;99.90
20204;DHT22;10261;49.010;12.034;2022-12-05T02:40:31;7.30;99.90
20204;DHT22;10261;49.010;12.034;2022-12-05T02:41:38;7.40;99.90
20204;DHT22;10261;49.010;12.034;2022-12-05T02:42:48;7.40;99.90
20204;DHT22;10261;49.010;12.034;2022-12-05T02:43:55;7.40;99.90
20204;DHT22;10261;49.010;12.034;2022-12-05T02:45:02;7.40;99.90
20204;DHT22;10261;49.010;12.034;2022-12-05T02:46:10;7.40;99.90
20204;DHT22;10261;49.010;12.034;2022-12-05T02:47:17;7.30;99.90
20204;DHT22;10261;49.010;12.034;2022-12-05T02:48:21;7.30;99.90
20204;DHT22;10261;49.010;12.034;2022-12-05T02:49:29;7.40;99.90
20204;DHT22;10261;49.010;12.034;2022-12-05T02:50:35;7.40;99.90
20204;DHT22;10261;49.010;12.034;2022-12-05T02:51:43;7.40;99.90
20204;DHT22;10261;49.010;12.034;2022-12-05T02:52:48;7.50;99.90
20204;DHT22;10261;49.010;12.034;2022-12-05T02:53:53;7.50;99.90
20204;DHT22;10261;49.010;12.034;2022-12-05T02:54:59;7.50;99.90
20204;DHT22;10261;49.010;12.034;2022-12-05T02:56:03;7.50;99.90
20204;DHT22;10261;49.010;12.034;2022-12-05T02:57:07;7.50;99.90
20204;DHT22;10261;49.010;12.034;2022-12-05T02:58:15;7.50;99.90
20204;DHT22;10261;49.010;12.034;2022-12-05T02:59:17;7.50;99.90
20204;DHT22;10261;49.010;12.034;2022-12-05T03:00:25;7.50;99.90
20204;DHT22;10261;49.010;12.034;2022-12-05T03:01:29;7.40;99.90
20204;DHT22;10261;49.010;12.034;2022-12-05T03:02:34;7.40;99.90
20204;DHT22;10261;49.010;12.034;2022-12-05T03:03:36;7.40;99.90
20204;DHT22;10261;49.010;12.034;2022-12-05T03:04:39;7.40;99.90
20204;DHT22;10261;49.010;12.034;2022-12-05T03:05:43;7.40;99.90
20204;DHT22;10261;49.010;12.034;2022-12-05T03:06:52;7.40;99.90
20204;DHT22;10261;49.010;12.034;2022-12-05T03:07:57;7.40;99.90
20204;DHT22;10261;49.010;12.034;2022-12-05T03:09:04;7.40;99.90
20204;DHT22;10261;49.010;12.034;2022-12-05T03:10:09;7.30;99.90
20204;DHT22;10261;49.010;12.034;2022-12-05T03:11:12;7.30;99.90
20204;DHT22;10261;49.010;12.034;2022-12-05T03:12:17;7.30;99.90
20204;DHT22;10261;49.010;12.034;2022-12-05T03:13:24;7.30;99.90
20204;DHT22;10261;49.010;12.034;2022-12-05T03:14:33;7.30;99.90
20204;DHT22;10261;49.010;12.034;2022-12-05T03:15:42;7.40;99.90
20204;DHT22;10261;49.010;12.034;2022-12-05T03:16:48;7.30;99.90
20204;DHT22;10261;49.010;12.034;2022-12-05T03:17:56;7.30;99.90
20204;DHT22;10261;49.010;12.034;2022-12-05T03:19:04;7.40;99.90
20204;DHT22;10261;49.010;12.034;2022-12-05T03:20:12;7.30;99.90
20204;DHT22;10261;49.010;12.034;2022-12-05T03:21:23;7.30;99.90
20204;DHT22;10261;49.010;12.034;2022-12-05T03:22:31;7.40;99.90
20204;DHT22;10261;49.010;12.034;2022-12-05T03:23:37;7.40;99.90
20204;DHT22;10261;49.010;12.034;2022-12-05T03:24:41;7.40;99.90
20204;DHT22;10261;49.010;12.034;2022-12-05T03:25:49;7.40;99.90
20204;DHT22;10261;49.010;12.034;2022-12-05T03:27:00;7.40;99.90
20204;DHT22;10261;49.010;12.034;2022-12-05T03:28:11;7.30;99.90
20204;DHT22;10261;49.010;12.034;2022-12-05T03:29:24;7.40;99.90
20204;DHT22;10261;49.010;12.034;2022-12-05T03:30:30;7.40;99.90
20204;DHT22;10261;49.010;12.034;2022-12-05T03:31:39;7.50;99.90
20204;DHT22;10261;49.010;12.034;2022-12-05T03:32:47;7.40;99.90
20204;DHT22;10261;49.010;12.034;2022-12-05T03:33:55;7.40;99.90
20204;DHT22;10261;49.010;12.034;2022-12-05T03:35:04;7.40;99.90
20204;DHT22;10261;49.010;12.034;2022-12-05T03:36:12;7.30;99.90
20204;DHT22;10261;49.010;12.034;2022-12-05T03:37:21;7.40;99.90
20204;DHT22;10261;49.010;12.034;2022-12-05T03:38:30;7.40;99.90
20204;DHT22;10261;49.010;12.034;2022-12-05T03:39:35;7.30;99.90
20204;DHT22;10261;49.010;12.034;2022-12-05T03:40:42;7.30;99.90
20204;DHT22;10261;49.010;12.034;2022-12-05T03:41:52;7.40;99.90
20204;DHT22;10261;49.010;12.034;2022-12-05T03:43:00;7.30;99.90
20204;DHT22;10261;49.010;12.034;2022-12-05T03:44:13;7.30;99.90
20204;DHT22;10261;49.010;12.034;2022-12-05T03:45:25;7.40;99.90
20204;DHT22;10261;49.010;12.034;2022-12-05T03:46:32;7.40;99.90
20204;DHT22;10261;49.010;12.034;2022-12-05T03:47:43;7.40;99.90
20204;DHT22;10261;49.010;12.034;2022-12-05T03:48:51;7.40;99.90
20204;DHT22;10261;49.010;12.034;2022-12-05T03:49:59;7.30;99.90
20204;DHT22;10261;49.010;12.034;2022-12-05T03:51:07;7.40;99.90
20204;DHT22;10261;49.010;12.034;2022-12-05T03:52:12;7.40;99.90
20204;DHT22;10261;49.010;12.034;2022-12-05T03:53:19;7.30;99.90
20204;DHT22;10261;49.010;12.034;2022-12-05T03:54:25;7.30;99.90
20204;DHT22;10261;49.010;12.034;2022-12-05T03:55:31;7.30;99.90
20204;DHT22;10261;49.010;12.034;2022-12-05T03:56:37;7.30;99.90
20204;DHT22;10261;49.010;12.034;2022-12-05T03:57:45;7.30;99.90
20204;DHT22;10261;49.010;12.034;2022-12-05T03:58:53;7.30;99.90
20204;DHT22;10261;49.010;12.034;2022-12-05T04:00:02;7.20;99.90
20204;DHT22;10261;49.010;12.034;2022-12-05T04:01:06;7.30;99.90
20204;DHT22;10261;49.010;12.034;2022-12-05T04:02:14;7.30;99.90
20204;DHT22;10261;49.010;12.034;2022-12-05T04:03:23;7.20;99.90
20204;DHT22;10261;49.010;12.034;2022-12-05T04:04:43;7.30;99.90
20204;DHT22;10261;49.010;12.034;2022-12-05T04:05:49;7.30;99.90
20204;DHT22;10261;49.010;12.034;2022-12-05T04:06:55;7.30;99.90
20204;DHT22;10261;49.010;12.034;2022-12-05T04:08:01;7.30;99.90
20204;DHT22;10261;49.010;12.034;2022-12-05T04:09:07;7.30;99.90
20204;DHT22;10261;49.010;12.034;2022-12-05T04:10:19;7.40;99.90
20204;DHT22;10261;49.010;12.034;2022-12-05T04:11:26;7.30;99.90
20204;DHT22;10261;49.010;12.034;2022-12-05T04:12:30;7.40;99.90
20204;DHT22;10261;49.010;12.034;2022-12-05T04:13:38;7.40;99.90
20204;DHT22;10261;49.010;12.034;2022-12-05T04:14:43;7.40;99.90
20204;DHT22;10261;49.010;12.034;2022-12-05T04:15:50;7.40;99.90
20204;DHT22;10261;49.010;12.034;2022-12-05T04:17:18;7.40;99.90
20204;DHT22;10261;49.010;12.034;2022-12-05T04:18:24;7.30;99.90
20204;DHT22;10261;49.010;12.034;2022-12-05T04:19:32;7.30;99.90
20204;DHT22;10261;49.010;12.034;2022-12-05T04:20:51;7.30;99.90
20204;DHT22;10261;49.010;12.034;2022-12-05T04:22:12;7.20;99.90
20204;DHT22;10261;49.010;12.034;2022-12-05T04:23:15;7.30;99.90
20204;DHT22;10261;49.010;12.034;2022-12-05T04:24:20;7.30;99.90
20204;DHT22;10261;49.010;12.034;2022-12-05T04:25:49;7.30;99.90
20204;DHT22;10261;49.010;12.034;2022-12-05T04:27:07;7.20;99.90
20204;DHT22;10261;49.010;12.034;2022-12-05T04:28:19;7.20;99.90
20204;DHT22;10261;49.010;12.034;2022-12-05T04:29:29;7.30;99.90
20204;DHT22;10261;49.010;12.034;2022-12-05T04:30:36;7.30;99.90
20204;DHT22;10261;49.010;12.034;2022-12-05T04:31:42;7.30;99.90
20204;DHT22;10261;49.010;12.034;2022-12-05T04:32:47;7.20;99.90
20204;DHT22;10261;49.010;12.034;2022-12-05T04:33:55;7.30;99.90
20204;DHT22;10261;49.010;12.034;2022-12-05T04:35:03;7.30;99.90
20204;DHT22;10261;49.010;12.034;2022-12-05T04:36:12;7.20;99.90
20204;DHT22;10261;49.010;12.034;2022-12-05T04:37:17;7.20;99.90
20204;DHT22;10261;49.010;12.034;2022-12-05T04:38:25;7.20;99.90
20204;DHT22;10261;49.010;12.034;2022-12-05T04:39:33;7.30;99.90
20204;DHT22;10261;49.010;12.034;2022-12-05T04:40:40;7.30;99.90
20204;DHT22;10261;49.010;12.034;2022-12-05T04:41:48;7.40;99.90
20204;DHT22;10261;49.010;12.034;2022-12-05T04:42:54;7.30;99.90
20204;DHT22;10261;49.010;12.034;2022-12-05T04:44:00;7.30;99.90
20204;DHT22;10261;49.010;12.034;2022-12-05T04:45:07;7.20;99.90
20204;DHT22;10261;49.010;12.034;2022-12-05T04:46:13;7.30;99.90
20204;DHT22;10261;49.010;12.034;2022-12-05T04:47:19;7.30;99.90
20204;DHT22;10261;49.010;12.034;2022-12-05T04:48:23;7.30;99.90
20204;DHT22;10261;49.010;12.034;2022-12-05T04:49:30;7.30;99.90
20204;DHT22;10261;49.010;12.034;2022-12-05T04:50:34;7.30;99.90
20204;DHT22;10261;49.010;12.034;2022-12-05T04:51:39;8.40;99.90
20204;DHT22;10261;49.010;12.034;2022-12-05T04:52:42;7.40;99.90
20204;DHT22;10261;49.010;12.034;2022-12-05T04:53:52;7.30;99.90
20204;DHT22;10261;49.010;12.034;2022-12-05T04:55:00;7.30;99.90
20204;DHT22;10261;49.010;12.034;2022-12-05T04:56:05;7.10;99.90
20204;DHT22;10261;49.010;12.034;2022-12-05T04:57:11;7.10;99.90
20204;DHT22;10261;49.010;12.034;2022-12-05T04:58:19;7.10;99.90
20204;DHT22;10261;49.010;12.034;2022-12-05T04:59:23;7.20;99.90
20204;DHT22;10261;49.010;12.034;2022-12-05T05:00:25;7.20;99.90
20204;DHT22;10261;49.010;12.034;2022-12-05T05:01:32;7.20;99.90
20204;DHT22;10261;49.010;12.034;2022-12-05T05:02:40;7.20;99.90
20204;DHT22;10261;49.010;12.034;2022-12-05T05:03:48;7.20;99.90
20204;DHT22;10261;49.010;12.034;2022-12-05T05:04:55;7.10;99.90
20204;DHT22;10261;49.010;12.034;2022-12-05T05:05:59;7.10;99.90
20204;DHT22;10261;49.010;12.034;2022-12-05T05:07:05;7.10;99.90
20204;DHT22;10261;49.010;12.034;2022-12-05T05:08:15;7.10;99.90
20204;DHT22;10261;49.010;12.034;2022-12-05T05:09:19;7.10;99.90
20204;DHT22;10261;49.010;12.034;2022-12-05T05:10:29;7.10;99.90
20204;DHT22;10261;49.010;12.034;2022-12-05T05:11:33;7.20;99.90
20204;DHT22;10261;49.010;12.034;2022-12-05T05:12:36;7.30;99.90
20204;DHT22;10261;49.010;12.034;2022-12-05T05:13:39;7.30;99.90
20204;DHT22;10261;49.010;12.034;2022-12-05T05:14:41;7.20;99.90
20204;DHT22;10261;49.010;12.034;2022-12-05T05:15:44;7.20;99.90
20204;DHT22;10261;49.010;12.034;2022-12-05T05:16:46;7.20;99.90
20204;DHT22;10261;49.010;12.034;2022-12-05T05:17:49;7.20;99.90
20204;DHT22;10261;49.010;12.034;2022-12-05T05:18:52;8.00;99.90
20204;DHT22;10261;49.010;12.034;2022-12-05T05:19:56;7.20;99.90
20204;DHT22;10261;49.010;12.034;2022-12-05T05:21:25;7.20;99.90
20204;DHT22;10261;49.010;12.034;2022-12-05T05:22:28;7.10;99.90
20204;DHT22;10261;49.010;12.034;2022-12-05T05:23:30;7.10;99.90
20204;DHT22;10261;49.010;12.034;2022-12-05T05:24:33;7.10;99.90
20204;DHT22;10261;49.010;12.034;2022-12-05T05:25:35;7.10;99.90
20204;DHT22;10261;49.010;12.034;2022-12-05T05:26:40;7.10;99.90
20204;DHT22;10261;49.010;12.034;2022-12-05T05:27:46;7.10;99.90
20204;DHT22;10261;49.010;12.034;2022-12-05T05:28:49;7.00;99.90
20204;DHT22;10261;49.010;12.034;2022-12-05T05:29:52;7.10;99.90
20204;DHT22;10261;49.010;12.034;2022-12-05T05:30:55;7.10;99.90
20204;DHT22;10261;49.010;12.034;2022-12-05T05:32:02;7.20;99.90
20204;DHT22;10261;49.010;12.034;2022-12-05T05:33:05;7.20;99.90
20204;DHT22;10261;49.010;12.034;2022-12-05T05:34:07;7.20;99.90
20204;DHT22;10261;49.010;12.034;2022-12-05T05:35:12;7.20;99.90
20204;DHT22;10261;49.010;12.034;2022-12-05T05:36:14;7.20;99.90
20204;DHT22;10261;49.010;12.034;2022-12-05T05:37:17;7.20;99.90
20204;DHT22;10261;49.010;12.034;2022-12-05T05:38:19;7.20;99.90
20204;DHT22;10261;49.010;12.034;2022-12-05T05:39:22;7.20;99.90
20204;DHT22;10261;49.010;12.034;2022-12-05T05:40:24;7.20;99.90
20204;DHT22;10261;49.010;12.034;2022-12-05T05:41:30;7.20;99.90
20204;DHT22;10261;49.010;12.034;2022-12-05T05:42:32;7.30;99.90
20204;DHT22;10261;49.010;12.034;2022-12-05T05:43:35;7.30;99.90
20204;DHT22;10261;49.010;12.034;2022-12-05T05:44:37;7.20;99.90
20204;DHT22;10261;49.010;12.034;2022-12-05T05:45:40;7.20;99.90
20204;DHT22;10261;49.010;12.034;2022-12-05T05:46:42;7.20;99.90
20204;DHT22;10261;49.010;12.034;2022-12-05T05:47:47;7.20;99.90
20204;DHT22;10261;49.010;12.034;2022-12-05T05:48:49;7.20;99.90
20204;DHT22;10261;49.010;12.034;2022-12-05T05:49:52;7.10;99.90
20204;DHT22;10261;49.010;12.034;2022-12-05T05:50:57;7.10;99.90
20204;DHT22;10261;49.010;12.034;2022-12-05T05:52:00;7.10;99.90
20204;DHT22;10261;49.010;12.034;2022-12-05T05:53:02;7.10;99.90
20204;DHT22;10261;49.010;12.034;2022-12-05T05:54:05;7.10;99.90
20204;DHT22;10261;49.010;12.034;2022-12-05T05:55:08;7.20;99.90
20204;DHT22;10261;49.010;12.034;2022-12-05T05:56:14;7.20;99.90
20204;DHT22;10261;49.010;12.034;2022-12-05T05:57:22;7.10;99.90
20204;DHT22;10261;49.010;12.034;2022-12-05T05:58:25;7.20;99.90
20204;DHT22;10261;49.010;12.034;2022-12-05T05:59:26;7.10;99.90
20204;DHT22;10261;49.010;12.034;2022-12-05T06:00:29;7.10;99.90
20204;DHT22;10261;49.010;12.034;2022-12-05T06:01:32;7.20;99.90
20204;DHT22;10261;49.010;12.034;2022-12-05T06:02:35;7.20;99.90
20204;DHT22;10261;49.010;12.034;2022-12-05T06:03:39;7.10;99.90
20204;DHT22;10261;49.010;12.034;2022-12-05T06:04:41;7.10;99.90
20204;DHT22;10261;49.010;12.034;2022-12-05T06:05:44;7.10;99.90
20204;DHT22;10261;49.010;12.034;2022-12-05T06:06:54;7.20;99.90
20204;DHT22;10261;49.010;12.034;2022-12-05T06:07:57;7.30;99.90
20204;DHT22;10261;49.010;12.034;2022-12-05T06:09:00;7.20;99.90
20204;DHT22;10261;49.010;12.034;2022-12-05T06:10:03;7.20;99.90
20204;DHT22;10261;49.010;12.034;2022-12-05T06:11:07;7.20;99.90
20204;DHT22;10261;49.010;12.034;2022-12-05T06:12:10;7.20;99.90
20204;DHT22;10261;49.010;12.034;2022-12-05T06:13:13;7.20;99.90
20204;DHT22;10261;49.010;12.034;2022-12-05T06:14:15;7.10;99.90
20204;DHT22;10261;49.010;12.034;2022-12-05T06:15:18;7.10;99.90
20204;DHT22;10261;49.010;12.034;2022-12-05T06:16:20;7.10;99.90
20204;DHT22;10261;49.010;12.034;2022-12-05T06:17:23;7.10;99.90
20204;DHT22;10261;49.010;12.034;2022-12-05T06:18:26;7.20;99.90
20204;DHT22;10261;49.010;12.034;2022-12-05T06:19:28;7.20;99.90
20204;DHT22;10261;49.010;12.034;2022-12-05T06:20:31;7.20;99.90
20204;DHT22;10261;49.010;12.034;2022-12-05T06:21:33;7.10;99.90
20204;DHT22;10261;49.010;12.034;2022-12-05T06:22:37;7.20;99.90
20204;DHT22;10261;49.010;12.034;2022-12-05T06:23:40;7.10;99.90
20204;DHT22;10261;49.010;12.034;2022-12-05T06:24:43;7.10;99.90
20204;DHT22;10261;49.010;12.034;2022-12-05T06:25:46;7.00;99.90
20204;DHT22;10261;49.010;12.034;2022-12-05T06:26:50;7.10;99.90
20204;DHT22;10261;49.010;12.034;2022-12-05T06:27:52;7.10;99.90
20204;DHT22;10261;49.010;12.034;2022-12-05T06:28:55;7.10;99.90
20204;DHT22;10261;49.010;12.034;2022-12-05T06:29:58;7.10;99.90
20204;DHT22;10261;49.010;12.034;2022-12-05T06:31:06;7.10;99.90
20204;DHT22;10261;49.010;12.034;2022-12-05T06:32:10;7.00;99.90
20204;DHT22;10261;49.010;12.034;2022-12-05T06:33:13;7.10;99.90
20204;DHT22;10261;49.010;12.034;2022-12-05T06:34:15;7.10;99.90
20204;DHT22;10261;49.010;12.034;2022-12-05T06:35:18;7.10;99.90
20204;DHT22;10261;49.010;12.034;2022-12-05T06:36:21;7.10;99.90
20204;DHT22;10261;49.010;12.034;2022-12-05T06:37:23;7.20;99.90
20204;DHT22;10261;49.010;12.034;2022-12-05T06:38:28;7.10;99.90
20204;DHT22;10261;49.010;12.034;2022-12-05T06:39:30;7.10;99.90
20204;DHT22;10261;49.010;12.034;2022-12-05T06:40:33;7.10;99.90
20204;DHT22;10261;49.010;12.034;2022-12-05T06:41:35;7.10;99.90
20204;DHT22;10261;49.010;12.034;2022-12-05T06:42:38;7.10;99.90
20204;DHT22;10261;49.010;12.034;2022-12-05T06:43:40;7.10;99.90
20204;DHT22;10261;49.010;12.034;2022-12-05T06:44:43;7.10;99.90
20204;DHT22;10261;49.010;12.034;2022-12-05T06:45:45;7.10;99.90
20204;DHT22;10261;49.010;12.034;2022-12-05T06:46:48;7.10;99.90
20204;DHT22;10261;49.010;12.034;2022-12-05T06:47:52;7.10;99.90
20204;DHT22;10261;49.010;12.034;2022-12-05T06:48:55;7.10;99.90
20204;DHT22;10261;49.010;12.034;2022-12-05T06:49:58;7.10;99.90
20204;DHT22;10261;49.010;12.034;2022-12-05T06:51:01;7.10;99.90
20204;DHT22;10261;49.010;12.034;2022-12-05T06:52:04;7.10;99.90
20204;DHT22;10261;49.010;12.034;2022-12-05T06:53:07;7.10;99.90
20204;DHT22;10261;49.010;12.034;2022-12-05T06:54:12;7.10;99.90
20204;DHT22;10261;49.010;12.034;2022-12-05T06:55:15;7.10;99.90
20204;DHT22;10261;49.010;12.034;2022-12-05T06:56:18;7.10;99.90
20204;DHT22;10261;49.010;12.034;2022-12-05T06:57:21;7.10;99.90
20204;DHT22;10261;49.010;12.034;2022-12-05T06:58:23;7.10;99.90